Portada
METAR-TAF:

METAR-TAF

Aeropuertos :

Aeropuerto Internacional de Jacksons

Port Moresby, Papúa Nueva Guinea

latitud: 09-26S, longitud: 147-13E, altitud: 38 m

Observación

El informe se hizo hace 1 hora y 12 minutos, a las 16:00 UTC
Viento 2 kt con dirección variable
Temperatura 24°C
Humedad 94%
Presión 1007 hPa
Visibilidad 10 km o más
Cielo despejado

METAR: AYPY 111600Z VRB02KT 9999 SKC 24/23 Q1007

Hora: 03:12 (17:12 UTC)

Pronóstico

El informe se hizo hace 7 horas y 32 minutos, a las 09:40 UTC
Pronóstico válido del 11 a las 12 UTC al 12 a las 12 UTC
Viento 15 kt del noroeste
Visibilidad 10 km o más
Nubes dispersas a una altura de 4000 ft

TAF: AYPY 110940Z 1112/1212 32015KT 9999 SCT040

Observaciones y pronósticos meteorológicos de más de 4000 aeropuertos (mensajes METAR y TAF).

Los puntos amarillos y rojos representan las estaciones disponibles.

Ponga el ratón en el punto deseado para ver el nombre de la estación.

Haga clic para ver las observaciones y los pronósticos meteorológicos.

Para cambiar el mapa : haga clic en los botones verdes con una cruz de color negro para hacer un zoom, en el botón verde con un guión para alejar o en las flechas verdes para mapas adyacentes.


METAR-TAF: